Hume, California
Current Conditions -  °F | °C
As of 1:55 PM on Tuesday 25 Nov 2014 (Local Time) from KVIS Reporting Station
Clear Clear  
Wind Chill: 64°   Ceiling: Unl
Heat Index: 64°   Visibility: 6mi
Dew Point: 46°   Wind: 5mph
Humidity: 52%   Direction: 350°N
Pressure: 30.4"   Gusts: NA
Location:  36.78°N, 118.91°W
Report Text: KVIS 252155Z 35004KT 6SM CLR 18/08 A3040 RMK AO1
Loading
Personal Weather Stations






























Interactive Weather Map New forecast layout! Learn more

10-Day Weather Forecast

Advertisements
Track Severe Weather on mobile